createdAt,value
2018-02-04T00:04:01.707Z,92.32
2018-02-04T00:19:01.767Z,92.72
2018-02-04T00:34:01.430Z,92.69
2018-02-04T00:49:07.796Z,86.50
2018-02-04T00:54:01.621Z,86.50
2018-02-04T01:09:02.816Z,83.35
2018-02-04T01:24:01.714Z,84.65
2018-02-04T01:39:02.720Z,84.60
2018-02-04T01:54:02.757Z,84.55
2018-02-04T02:00:01.671Z,83.89
2018-02-04T02:10:01.691Z,84.02
2018-02-04T02:15:01.628Z,84.02
2018-02-04T02:30:01.750Z,84.42
2018-02-04T02:45:01.687Z,84.91
2018-02-04T03:00:01.743Z,86.39
2018-02-04T03:15:01.772Z,85.94
2018-02-04T03:25:01.441Z,85.73
2018-02-04T03:30:01.850Z,86.39
2018-02-04T03:35:01.633Z,86.39
2018-02-04T03:45:01.833Z,86.51
2018-02-04T03:50:01.742Z,86.33
2018-02-04T04:00:01.849Z,86.17
2018-02-04T04:15:02.017Z,85.93
2018-02-04T04:30:01.759Z,86.09
2018-02-04T04:45:01.945Z,86.31
2018-02-04T05:00:01.812Z,85.90
2018-02-04T05:15:01.682Z,85.94
2018-02-04T05:20:01.751Z,85.46
2018-02-04T05:30:01.708Z,86.09
2018-02-04T05:45:06.575Z,87.55
2018-02-04T05:50:01.420Z,89.77
2018-02-04T06:00:01.991Z,90.47
2018-02-04T06:06:02.826Z,90.47
2018-02-04T06:16:02.557Z,91.52
2018-02-04T06:21:01.595Z,92.20
2018-02-04T06:26:06.570Z,92.20
2018-02-04T06:31:06.548Z,92.94
2018-02-04T06:36:01.528Z,92.94
2018-02-04T06:41:01.474Z,93.86
2018-02-04T06:46:01.533Z,93.86
2018-02-04T06:51:01.534Z,93.96
2018-02-04T07:01:01.527Z,93.84
2018-02-04T07:06:06.522Z,93.84
2018-02-04T07:11:01.543Z,93.37
2018-02-04T07:21:01.567Z,92.92
2018-02-04T07:36:01.518Z,92.81
2018-02-04T07:51:01.558Z,93.15
2018-02-04T08:06:01.561Z,92.19
2018-02-04T08:16:01.612Z,91.95
2018-02-04T08:31:01.524Z,93.77
2018-02-04T08:41:01.509Z,92.94
2018-02-04T08:56:01.574Z,91.42
2018-02-04T09:06:01.573Z,90.16
2018-02-04T09:21:01.579Z,87.82
2018-02-04T09:31:01.563Z,87.15
2018-02-04T09:46:01.575Z,86.09
2018-02-04T09:52:01.820Z,85.59
2018-02-04T10:02:01.372Z,85.37
2018-02-04T10:12:01.661Z,84.44
2018-02-04T10:22:01.763Z,84.44
2018-02-04T10:37:01.633Z,83.91
2018-02-04T10:47:01.427Z,83.07
2018-02-04T10:57:01.702Z,82.46
2018-02-04T11:12:01.715Z,82.24
2018-02-04T11:22:01.685Z,82.60
2018-02-04T11:37:01.701Z,82.46
2018-02-04T11:47:01.377Z,82.40
2018-02-04T12:02:01.436Z,83.36
2018-02-04T12:17:01.535Z,82.89
2018-02-04T12:27:01.515Z,83.02
2018-02-04T12:42:01.504Z,82.45
2018-02-04T12:57:01.498Z,82.65
2018-02-04T18:06:01.391Z,87.53
2018-02-04T18:26:01.273Z,86.70
2018-02-04T18:41:01.159Z,86.15
2018-02-04T18:51:01.194Z,86.68
2018-02-04T19:06:01.120Z,87.59
2018-02-04T19:21:01.215Z,88.40
2018-02-04T19:36:01.075Z,89.32
2018-02-04T19:51:01.148Z,89.39
2018-02-04T20:06:01.150Z,88.37
2018-02-04T20:21:01.238Z,86.86
2018-02-04T20:36:01.091Z,86.23
2018-02-04T20:51:01.363Z,85.76
2018-02-04T21:06:01.112Z,85.58
2018-02-04T21:21:01.241Z,84.85
2018-02-04T21:36:01.128Z,84.32
2018-02-04T21:51:01.243Z,83.96
2018-02-04T22:06:01.122Z,84.34
2018-02-04T22:21:02.153Z,84.28
2018-02-04T22:36:01.121Z,84.13
2018-02-04T22:51:01.175Z,84.09
2018-02-04T23:06:01.134Z,83.78
2018-02-04T23:11:02.282Z,83.45
2018-02-04T23:26:01.325Z,83.64
2018-02-04T23:41:01.306Z,84.12
2018-02-04T23:56:01.264Z,83.96
